sensor_id;sensor_type;location;lat;lon;timestamp;pressure;altitude;pressure_sealevel;temperature;humidity
17593;BME280;8915;51.760;14.300;2022-11-11T00:02:19;102155.78;;;4.67;100.00
17593;BME280;8915;51.760;14.300;2022-11-11T00:05:06;102158.31;;;4.64;100.00
17593;BME280;8915;51.760;14.300;2022-11-11T00:07:51;102158.25;;;4.62;100.00
17593;BME280;8915;51.760;14.300;2022-11-11T00:10:36;102158.25;;;4.62;100.00
17593;BME280;8915;51.760;14.300;2022-11-11T00:13:21;102155.63;;;4.61;100.00
17593;BME280;8915;51.760;14.300;2022-11-11T00:16:08;102151.28;;;4.58;100.00
17593;BME280;8915;51.760;14.300;2022-11-11T00:18:54;102157.25;;;4.55;100.00
17593;BME280;8915;51.760;14.300;2022-11-11T00:21:58;102158.06;;;4.53;100.00
17593;BME280;8915;51.760;14.300;2022-11-11T00:25:01;102154.56;;;4.51;100.00
17593;BME280;8915;51.760;14.300;2022-11-11T00:27:52;102145.06;;;4.50;100.00
17593;BME280;8915;51.760;14.300;2022-11-11T00:30:37;102140.72;;;4.47;100.00
17593;BME280;8915;51.760;14.300;2022-11-11T00:33:22;102139.16;;;4.54;100.00
17593;BME280;8915;51.760;14.300;2022-11-11T00:36:07;102149.38;;;4.49;100.00
17593;BME280;8915;51.760;14.300;2022-11-11T00:38:54;102173.38;;;4.45;100.00
17593;BME280;8915;51.760;14.300;2022-11-11T00:41:40;102173.31;;;4.42;100.00
17593;BME280;8915;51.760;14.300;2022-11-11T00:44:25;102169.75;;;4.37;100.00
17593;BME280;8915;51.760;14.300;2022-11-11T00:47:10;102164.50;;;4.34;100.00
17593;BME280;8915;51.760;14.300;2022-11-11T00:50:15;102160.19;;;4.33;100.00
17593;BME280;8915;51.760;14.300;2022-11-11T00:53:19;102162.75;;;4.33;100.00
17593;BME280;8915;51.760;14.300;2022-11-11T00:56:06;102159.38;;;4.35;100.00
17593;BME280;8915;51.760;14.300;2022-11-11T00:58:51;102160.28;;;4.38;100.00
17593;BME280;8915;51.760;14.300;2022-11-11T01:01:37;102161.91;;;4.34;100.00
17593;BME280;8915;51.760;14.300;2022-11-11T01:04:22;102144.75;;;4.36;100.00
17593;BME280;8915;51.760;14.300;2022-11-11T01:07:07;102131.03;;;4.39;100.00
17593;BME280;8915;51.760;14.300;2022-11-11T01:09:52;102144.03;;;4.42;100.00
17593;BME280;8915;51.760;14.300;2022-11-11T01:12:38;102142.41;;;4.45;100.00
17593;BME280;8915;51.760;14.300;2022-11-11T01:15:23;102157.00;;;4.45;100.00
17593;BME280;8915;51.760;14.300;2022-11-11T01:18:10;102160.44;;;4.44;100.00
17593;BME280;8915;51.760;14.300;2022-11-11T01:20:57;102161.22;;;4.41;100.00
17593;BME280;8915;51.760;14.300;2022-11-11T01:23:44;102172.38;;;4.39;100.00
17593;BME280;8915;51.760;14.300;2022-11-11T01:26:29;102172.31;;;4.37;100.00
17593;BME280;8915;51.760;14.300;2022-11-11T01:29:15;102172.41;;;4.40;100.00
17593;BME280;8915;51.760;14.300;2022-11-11T01:32:01;102167.97;;;4.36;100.00
17593;BME280;8915;51.760;14.300;2022-11-11T01:34:46;102167.88;;;4.31;100.00
17593;BME280;8915;51.760;14.300;2022-11-11T01:37:31;102161.81;;;4.29;100.00
17593;BME280;8915;51.760;14.300;2022-11-11T01:40:16;102155.72;;;4.27;100.00
17593;BME280;8915;51.760;14.300;2022-11-11T01:43:17;102154.94;;;4.30;100.00
17593;BME280;8915;51.760;14.300;2022-11-11T01:46:03;102145.25;;;4.21;100.00
17593;BME280;8915;51.760;14.300;2022-11-11T01:48:51;102139.97;;;4.16;100.00
17593;BME280;8915;51.760;14.300;2022-11-11T01:51:55;102150.25;;;4.13;100.00
17593;BME280;8915;51.760;14.300;2022-11-11T01:54:44;102140.78;;;4.14;100.00
17593;BME280;8915;51.760;14.300;2022-11-11T01:57:35;102138.97;;;4.11;100.00
17593;BME280;8915;51.760;14.300;2022-11-11T02:00:21;102138.97;;;4.11;100.00
17593;BME280;8915;51.760;14.300;2022-11-11T02:03:08;102139.88;;;4.12;100.00
17593;BME280;8915;51.760;14.300;2022-11-11T02:05:54;102139.03;;;4.13;100.00
17593;BME280;8915;51.760;14.300;2022-11-11T02:08:41;102140.66;;;4.09;100.00
17593;BME280;8915;51.760;14.300;2022-11-11T02:11:27;102144.81;;;4.04;100.00
17593;BME280;8915;51.760;14.300;2022-11-11T02:14:32;102143.16;;;4.05;100.00
17593;BME280;8915;51.760;14.300;2022-11-11T02:17:23;102143.16;;;4.05;100.00
17593;BME280;8915;51.760;14.300;2022-11-11T02:20:13;102137.91;;;4.02;100.00
17593;BME280;8915;51.760;14.300;2022-11-11T02:23:02;102140.63;;;4.08;100.00
17593;BME280;8915;51.760;14.300;2022-11-11T02:25:53;102140.69;;;4.11;100.00
17593;BME280;8915;51.760;14.300;2022-11-11T02:28:40;102139.91;;;4.13;100.00
17593;BME280;8915;51.760;14.300;2022-11-11T02:31:27;102143.31;;;4.12;100.00
17593;BME280;8915;51.760;14.300;2022-11-11T02:34:13;102146.72;;;4.11;100.00
17593;BME280;8915;51.760;14.300;2022-11-11T02:36:59;102148.41;;;4.09;100.00
17593;BME280;8915;51.760;14.300;2022-11-11T02:39:47;102146.69;;;4.08;100.00
17593;BME280;8915;51.760;14.300;2022-11-11T02:42:35;102145.84;;;4.11;100.00
17593;BME280;8915;51.760;14.300;2022-11-11T02:45:20;102153.56;;;4.09;100.00
17593;BME280;8915;51.760;14.300;2022-11-11T02:48:05;102152.75;;;4.10;100.00
17593;BME280;8915;51.760;14.300;2022-11-11T02:50:51;102152.78;;;4.12;100.00
17593;BME280;8915;51.760;14.300;2022-11-11T02:53:36;102152.81;;;4.13;100.00
17593;BME280;8915;51.760;14.300;2022-11-11T02:56:22;102149.34;;;4.13;100.00
17593;BME280;8915;51.760;14.300;2022-11-11T02:59:22;102142.50;;;4.15;100.00
17593;BME280;8915;51.760;14.300;2022-11-11T03:02:07;102147.66;;;4.13;100.00
17593;BME280;8915;51.760;14.300;2022-11-11T03:04:52;102153.78;;;4.17;100.00
17593;BME280;8915;51.760;14.300;2022-11-11T03:07:37;102144.41;;;4.21;100.00
17593;BME280;8915;51.760;14.300;2022-11-11T03:10:22;102136.69;;;4.24;100.00
17593;BME280;8915;51.760;14.300;2022-11-11T03:13:07;102148.81;;;4.26;100.00
17593;BME280;8915;51.760;14.300;2022-11-11T03:15:54;102148.09;;;4.32;100.00
17593;BME280;8915;51.760;14.300;2022-11-11T03:18:39;102165.38;;;4.34;100.00
17593;BME280;8915;51.760;14.300;2022-11-11T03:21:23;102162.06;;;4.40;100.00
17593;BME280;8915;51.760;14.300;2022-11-11T03:24:09;102162.19;;;4.46;100.00
17593;BME280;8915;51.760;14.300;2022-11-11T03:26:54;102170.97;;;4.53;100.00
17593;BME280;8915;51.760;14.300;2022-11-11T03:29:39;102161.50;;;4.53;100.00
17593;BME280;8915;51.760;14.300;2022-11-11T03:32:26;102155.47;;;4.53;100.00
17593;BME280;8915;51.760;14.300;2022-11-11T03:35:11;102163.41;;;4.61;100.00
17593;BME280;8915;51.760;14.300;2022-11-11T03:37:57;102163.50;;;4.65;100.00
17593;BME280;8915;51.760;14.300;2022-11-11T03:41:01;102174.81;;;4.70;100.00
17593;BME280;8915;51.760;14.300;2022-11-11T03:43:47;102173.16;;;4.72;100.00
17593;BME280;8915;51.760;14.300;2022-11-11T03:46:32;102170.69;;;4.77;100.00
17593;BME280;8915;51.760;14.300;2022-11-11T03:49:19;102181.06;;;4.79;100.00
17593;BME280;8915;51.760;14.300;2022-11-11T03:52:04;102182.03;;;4.85;100.00
17593;BME280;8915;51.760;14.300;2022-11-11T03:54:49;102180.38;;;4.89;100.00
17593;BME280;8915;51.760;14.300;2022-11-11T03:57:38;102177.84;;;4.90;100.00
17593;BME280;8915;51.760;14.300;2022-11-11T04:00:25;102175.34;;;4.93;100.00
17593;BME280;8915;51.760;14.300;2022-11-11T04:03:12;102178.84;;;4.97;100.00
17593;BME280;8915;51.760;14.300;2022-11-11T04:06:17;102182.25;;;4.95;100.00
17593;BME280;8915;51.760;14.300;2022-11-11T04:09:20;102172.88;;;4.98;100.00
17593;BME280;8915;51.760;14.300;2022-11-11T04:12:23;102173.91;;;5.08;100.00
17593;BME280;8915;51.760;14.300;2022-11-11T04:15:09;102166.16;;;5.08;100.00
17593;BME280;8915;51.760;14.300;2022-11-11T04:18:11;102153.38;;;5.14;100.00
17593;BME280;8915;51.760;14.300;2022-11-11T04:20:56;102150.75;;;5.12;100.00
17593;BME280;8915;51.760;14.300;2022-11-11T04:24:01;102150.78;;;5.14;100.00
17593;BME280;8915;51.760;14.300;2022-11-11T04:26:46;102142.13;;;5.13;100.00
17593;BME280;8915;51.760;14.300;2022-11-11T04:29:30;102136.97;;;5.13;100.00
17593;BME280;8915;51.760;14.300;2022-11-11T04:32:17;102137.00;;;5.15;100.00
17593;BME280;8915;51.760;14.300;2022-11-11T04:35:22;102129.34;;;5.20;100.00
17593;BME280;8915;51.760;14.300;2022-11-11T04:38:09;102131.06;;;5.19;100.00
17593;BME280;8915;51.760;14.300;2022-11-11T04:41:15;102136.28;;;5.22;100.00
17593;BME280;8915;51.760;14.300;2022-11-11T04:44:00;102139.84;;;5.27;100.00
17593;BME280;8915;51.760;14.300;2022-11-11T04:47:02;102126.06;;;5.28;100.00
17593;BME280;8915;51.760;14.300;2022-11-11T04:49:47;102123.47;;;5.28;100.00
17593;BME280;8915;51.760;14.300;2022-11-11T04:52:32;102136.44;;;5.30;100.00
17593;BME280;8915;51.760;14.300;2022-11-11T04:55:17;102151.97;;;5.30;100.00
17593;BME280;8915;51.760;14.300;2022-11-11T04:58:23;102158.88;;;5.31;100.00
17593;BME280;8915;51.760;14.300;2022-11-11T05:01:09;102158.88;;;5.29;100.00
17593;BME280;8915;51.760;14.300;2022-11-11T05:04:14;102153.63;;;5.26;100.00
17593;BME280;8915;51.760;14.300;2022-11-11T05:06:58;102152.75;;;5.26;100.00
17593;BME280;8915;51.760;14.300;2022-11-11T05:10:01;102138.91;;;5.24;100.00
17593;BME280;8915;51.760;14.300;2022-11-11T05:12:47;102137.22;;;5.24;100.00
17593;BME280;8915;51.760;14.300;2022-11-11T05:15:33;102139.78;;;5.24;100.00
17593;BME280;8915;51.760;14.300;2022-11-11T05:18:36;102139.78;;;5.24;100.00
17593;BME280;8915;51.760;14.300;2022-11-11T05:21:39;102132.06;;;5.26;100.00
17593;BME280;8915;51.760;14.300;2022-11-11T05:24:24;102132.06;;;5.26;100.00
17593;BME280;8915;51.760;14.300;2022-11-11T05:27:35;102132.06;;;5.26;100.00
17593;BME280;8915;51.760;14.300;2022-11-11T05:30:21;102123.44;;;5.27;100.00
17593;BME280;8915;51.760;14.300;2022-11-11T05:33:07;102136.31;;;5.24;100.00
17593;BME280;8915;51.760;14.300;2022-11-11T05:35:52;102139.72;;;5.21;100.00
17593;BME280;8915;51.760;14.300;2022-11-11T05:38:37;102156.03;;;5.17;100.00
17593;BME280;8915;51.760;14.300;2022-11-11T05:41:22;102150.75;;;5.12;100.00
17593;BME280;8915;51.760;14.300;2022-11-11T05:44:07;102161.06;;;5.11;100.00
17593;BME280;8915;51.760;14.300;2022-11-11T05:46:52;102157.47;;;5.04;100.00
17593;BME280;8915;51.760;14.300;2022-11-11T05:49:38;102159.97;;;5.00;100.00
17593;BME280;8915;51.760;14.300;2022-11-11T05:52:23;102155.59;;;4.97;100.00
17593;BME280;8915;51.760;14.300;2022-11-11T05:55:08;102152.09;;;4.95;100.00
17593;BME280;8915;51.760;14.300;2022-11-11T05:57:53;102146.88;;;4.92;100.00
17593;BME280;8915;51.760;14.300;2022-11-11T06:00:39;102154.53;;;4.89;100.00
17593;BME280;8915;51.760;14.300;2022-11-11T06:03:23;102156.31;;;4.90;100.00
17593;BME280;8915;51.760;14.300;2022-11-11T06:06:10;102164.06;;;4.90;100.00
17593;BME280;8915;51.760;14.300;2022-11-11T06:08:55;102164.09;;;4.91;100.00
17593;BME280;8915;51.760;14.300;2022-11-11T06:11:40;102158.88;;;4.90;100.00
17593;BME280;8915;51.760;14.300;2022-11-11T06:14:25;102168.41;;;4.91;100.00
17593;BME280;8915;51.760;14.300;2022-11-11T06:17:10;102164.09;;;4.91;100.00
17593;BME280;8915;51.760;14.300;2022-11-11T06:19:55;102171.88;;;4.93;100.00
17593;BME280;8915;51.760;14.300;2022-11-11T06:22:41;102173.63;;;4.94;100.00
17593;BME280;8915;51.760;14.300;2022-11-11T06:25:39;102178.00;;;4.97;100.00
17593;BME280;8915;51.760;14.300;2022-11-11T06:28:44;102196.16;;;5.01;100.00
17593;BME280;8915;51.760;14.300;2022-11-11T06:31:29;102199.69;;;5.03;100.00
17593;BME280;8915;51.760;14.300;2022-11-11T06:34:14;102216.19;;;5.08;100.00
17593;BME280;8915;51.760;14.300;2022-11-11T06:36:59;102222.22;;;5.09;100.00
17593;BME280;8915;51.760;14.300;2022-11-11T06:39:45;102232.72;;;5.17;100.00
17593;BME280;8915;51.760;14.300;2022-11-11T06:42:35;102217.34;;;5.23;100.00
17593;BME280;8915;51.760;14.300;2022-11-11T06:45:20;102226.97;;;5.30;100.00
17593;BME280;8915;51.760;14.300;2022-11-11T06:48:06;102215.94;;;5.39;100.00
17593;BME280;8915;51.760;14.300;2022-11-11T06:50:51;102214.38;;;5.45;100.00
17593;BME280;8915;51.760;14.300;2022-11-11T06:53:36;102212.81;;;5.55;100.00
17593;BME280;8915;51.760;14.300;2022-11-11T06:56:23;102224.22;;;5.63;100.00
17593;BME280;8915;51.760;14.300;2022-11-11T06:59:08;102232.19;;;5.74;100.00
17593;BME280;8915;51.760;14.300;2022-11-11T07:01:53;102234.09;;;5.84;100.00
17593;BME280;8915;51.760;14.300;2022-11-11T07:04:38;102232.53;;;5.94;100.00
17593;BME280;8915;51.760;14.300;2022-11-11T07:07:23;102238.84;;;6.05;100.00
17593;BME280;8915;51.760;14.300;2022-11-11T07:10:08;102239.94;;;6.18;100.00
17593;BME280;8915;51.760;14.300;2022-11-11T07:12:55;102230.63;;;6.30;100.00
17593;BME280;8915;51.760;14.300;2022-11-11T07:15:40;102237.69;;;6.37;100.00
17593;BME280;8915;51.760;14.300;2022-11-11T07:18:25;102232.59;;;6.44;100.00
17593;BME280;8915;51.760;14.300;2022-11-11T07:21:10;102228.38;;;6.50;100.00
17593;BME280;8915;51.760;14.300;2022-11-11T07:23:55;102239.66;;;6.53;100.00
17593;BME280;8915;51.760;14.300;2022-11-11T07:26:40;102236.28;;;6.59;100.00
17593;BME280;8915;51.760;14.300;2022-11-11T07:29:27;102234.69;;;6.66;100.00
17593;BME280;8915;51.760;14.300;2022-11-11T07:32:13;102234.75;;;6.70;100.00
17593;BME280;8915;51.760;14.300;2022-11-11T07:35:00;102238.25;;;6.75;100.00
17593;BME280;8915;51.760;14.300;2022-11-11T07:37:45;102234.91;;;6.81;100.00
17593;BME280;8915;51.760;14.300;2022-11-11T07:40:30;102241.03;;;6.88;100.00
17593;BME280;8915;51.760;14.300;2022-11-11T07:43:15;102244.59;;;6.91;100.00
17593;BME280;8915;51.760;14.300;2022-11-11T07:46:02;102239.50;;;6.99;100.00
17593;BME280;8915;51.760;14.300;2022-11-11T07:48:47;102238.75;;;7.06;100.00
17593;BME280;8915;51.760;14.300;2022-11-11T07:51:32;102244.03;;;7.15;100.00
17593;BME280;8915;51.760;14.300;2022-11-11T07:54:17;102243.31;;;7.24;100.00
17593;BME280;8915;51.760;14.300;2022-11-11T07:57:02;102241.72;;;7.34;100.00
17593;BME280;8915;51.760;14.300;2022-11-11T07:59:47;102240.97;;;7.46;100.00
17593;BME280;8915;51.760;14.300;2022-11-11T08:02:33;102249.75;;;7.54;100.00
17593;BME280;8915;51.760;14.300;2022-11-11T08:05:18;102249.88;;;7.66;100.00
17593;BME280;8915;51.760;14.300;2022-11-11T08:08:04;102244.81;;;7.77;100.00
17593;BME280;8915;51.760;14.300;2022-11-11T08:10:52;102246.66;;;7.87;100.00
17593;BME280;8915;51.760;14.300;2022-11-11T08:13:38;102240.75;;;7.99;100.00
17593;BME280;8915;51.760;14.300;2022-11-11T08:16:26;102252.94;;;8.06;100.00
17593;BME280;8915;51.760;14.300;2022-11-11T08:19:12;102253.00;;;8.15;100.00
17593;BME280;8915;51.760;14.300;2022-11-11T08:21:57;102258.28;;;8.25;100.00
17593;BME280;8915;51.760;14.300;2022-11-11T08:24:42;102267.88;;;8.29;100.00
17593;BME280;8915;51.760;14.300;2022-11-11T08:27:28;102273.16;;;8.38;100.00
17593;BME280;8915;51.760;14.300;2022-11-11T08:30:13;102283.59;;;8.41;100.00
17593;BME280;8915;51.760;14.300;2022-11-11T08:33:00;102287.16;;;8.46;100.00
17593;BME280;8915;51.760;14.300;2022-11-11T08:35:47;102281.97;;;8.48;100.00
17593;BME280;8915;51.760;14.300;2022-11-11T08:38:33;102268.94;;;8.49;100.00
17593;BME280;8915;51.760;14.300;2022-11-11T08:41:18;102269.00;;;8.54;100.00
17593;BME280;8915;51.760;14.300;2022-11-11T08:44:04;102273.38;;;8.60;100.00
17593;BME280;8915;51.760;14.300;2022-11-11T08:46:49;102276.06;;;8.67;100.00
17593;BME280;8915;51.760;14.300;2022-11-11T08:49:34;102278.66;;;8.70;100.00
17593;BME280;8915;51.760;14.300;2022-11-11T08:52:21;102281.28;;;8.72;100.00
17593;BME280;8915;51.760;14.300;2022-11-11T08:55:06;102295.16;;;8.71;100.00
17593;BME280;8915;51.760;14.300;2022-11-11T08:57:56;102292.59;;;8.77;100.00
17593;BME280;8915;51.760;14.300;2022-11-11T09:00:41;102302.16;;;8.80;100.00
17593;BME280;8915;51.760;14.300;2022-11-11T09:03:26;102291.75;;;8.83;100.00
17593;BME280;8915;51.760;14.300;2022-11-11T09:06:13;102305.66;;;8.86;100.00
17593;BME280;8915;51.760;14.300;2022-11-11T09:08:59;102301.41;;;8.96;100.00
17593;BME280;8915;51.760;14.300;2022-11-11T09:11:45;102310.13;;;9.01;100.00
17593;BME280;8915;51.760;14.300;2022-11-11T09:14:30;102304.94;;;9.07;100.00
17593;BME280;8915;51.760;14.300;2022-11-11T09:17:15;102303.22;;;9.08;100.00
17593;BME280;8915;51.760;14.300;2022-11-11T09:20:00;102306.75;;;9.18;100.00
17593;BME280;8915;51.760;14.300;2022-11-11T09:22:47;102301.63;;;9.32;100.00
17593;BME280;8915;51.760;14.300;2022-11-11T09:25:33;102313.00;;;9.43;100.00
17593;BME280;8915;51.760;14.300;2022-11-11T09:28:19;102312.16;;;9.50;100.00
17593;BME280;8915;51.760;14.300;2022-11-11T09:31:04;102322.63;;;9.59;100.00
17593;BME280;8915;51.760;14.300;2022-11-11T09:33:50;102323.47;;;9.58;100.00
17593;BME280;8915;51.760;14.300;2022-11-11T09:36:35;102321.72;;;9.54;100.00
17593;BME280;8915;51.760;14.300;2022-11-11T09:39:20;102324.31;;;9.54;100.00
17593;BME280;8915;51.760;14.300;2022-11-11T09:42:10;102322.59;;;9.55;100.00
17593;BME280;8915;51.760;14.300;2022-11-11T09:45:14;102333.88;;;9.58;100.00
17593;BME280;8915;51.760;14.300;2022-11-11T09:48:13;102333.03;;;9.61;100.00
17593;BME280;8915;51.760;14.300;2022-11-11T09:51:04;102338.28;;;9.69;100.00
17593;BME280;8915;51.760;14.300;2022-11-11T09:53:57;102337.47;;;9.73;100.00
17593;BME280;8915;51.760;14.300;2022-11-11T09:56:45;102345.28;;;9.79;100.00
17593;BME280;8915;51.760;14.300;2022-11-11T09:59:38;102340.09;;;9.88;100.00
17593;BME280;8915;51.760;14.300;2022-11-11T10:02:31;102347.97;;;9.99;100.00
17593;BME280;8915;51.760;14.300;2022-11-11T10:05:19;102357.56;;;10.11;100.00
17593;BME280;8915;51.760;14.300;2022-11-11T10:08:11;102348.91;;;10.21;100.00
17593;BME280;8915;51.760;14.300;2022-11-11T10:10:59;102342.00;;;10.31;100.00
17593;BME280;8915;51.760;14.300;2022-11-11T10:13:45;102341.16;;;10.36;100.00
17593;BME280;8915;51.760;14.300;2022-11-11T10:16:39;102339.44;;;10.38;100.00
17593;BME280;8915;51.760;14.300;2022-11-11T10:19:29;102336.84;;;10.48;100.00
17593;BME280;8915;51.760;14.300;2022-11-11T10:22:19;102342.06;;;10.60;100.00
17593;BME280;8915;51.760;14.300;2022-11-11T10:25:19;102329.91;;;10.79;100.00
17593;BME280;8915;51.760;14.300;2022-11-11T10:28:07;102345.56;;;10.91;100.00
17593;BME280;8915;51.760;14.300;2022-11-11T10:30:56;102335.13;;;11.08;100.00
17593;BME280;8915;51.760;14.300;2022-11-11T10:33:49;102331.59;;;11.20;100.00
17593;BME280;8915;51.760;14.300;2022-11-11T10:36:38;102333.34;;;11.35;100.00
17593;BME280;8915;51.760;14.300;2022-11-11T10:39:31;102342.91;;;11.45;100.00
17593;BME280;8915;51.760;14.300;2022-11-11T10:42:21;102337.63;;;11.53;100.00
17593;BME280;8915;51.760;14.300;2022-11-11T10:45:10;102328.06;;;11.53;100.00
17593;BME280;8915;51.760;14.300;2022-11-11T10:48:00;102334.13;;;11.59;100.00
17593;BME280;8915;51.760;14.300;2022-11-11T10:50:50;102329.81;;;11.58;100.00
17593;BME280;8915;51.760;14.300;2022-11-11T10:53:41;102324.53;;;11.64;100.00
17593;BME280;8915;51.760;14.300;2022-11-11T10:56:33;102328.03;;;11.60;100.00
17593;BME280;8915;51.760;14.300;2022-11-11T10:59:23;102328.91;;;11.63;100.00
17593;BME280;8915;51.760;14.300;2022-11-11T11:02:17;102323.63;;;11.71;100.00
17593;BME280;8915;51.760;14.300;2022-11-11T11:05:07;102327.16;;;11.70;100.00
17593;BME280;8915;51.760;14.300;2022-11-11T11:07:57;102329.75;;;11.68;100.00
17593;BME280;8915;51.760;14.300;2022-11-11T11:10:46;102334.09;;;11.68;100.00
17593;BME280;8915;51.760;14.300;2022-11-11T11:13:38;102337.59;;;11.70;100.00
17593;BME280;8915;51.760;14.300;2022-11-11T11:16:27;102328.88;;;11.72;100.00
17593;BME280;8915;51.760;14.300;2022-11-11T11:19:19;102331.47;;;11.75;100.00
17593;BME280;8915;51.760;14.300;2022-11-11T11:22:05;102336.69;;;11.75;100.00
17593;BME280;8915;51.760;14.300;2022-11-11T11:25:08;102334.09;;;11.79;100.00
17593;BME280;8915;51.760;14.300;2022-11-11T11:28:07;102338.41;;;11.81;100.00
17593;BME280;8915;51.760;14.300;2022-11-11T11:31:04;102342.75;;;11.88;100.00
17593;BME280;8915;51.760;14.300;2022-11-11T11:33:52;102344.47;;;11.96;100.00
17593;BME280;8915;51.760;14.300;2022-11-11T11:36:37;102344.47;;;11.97;100.00
17593;BME280;8915;51.760;14.300;2022-11-11T11:39:31;102348.78;;;12.04;100.00
17593;BME280;8915;51.760;14.300;2022-11-11T11:42:28;102346.16;;;12.07;100.00
17593;BME280;8915;51.760;14.300;2022-11-11T11:45:16;102341.78;;;12.16;100.00
17593;BME280;8915;51.760;14.300;2022-11-11T11:48:15;102344.41;;;12.17;100.00
17593;BME280;8915;51.760;14.300;2022-11-11T11:51:11;102340.03;;;12.19;100.00
17593;BME280;8915;51.760;14.300;2022-11-11T11:54:12;102338.25;;;12.21;100.00
17593;BME280;8915;51.760;14.300;2022-11-11T11:57:01;102331.28;;;12.22;100.00
17593;BME280;8915;51.760;14.300;2022-11-11T11:59:52;102323.44;;;12.22;100.00
17593;BME280;8915;51.760;14.300;2022-11-11T12:03:07;102319.06;;;12.22;100.00
17593;BME280;8915;51.760;14.300;2022-11-11T12:06:00;102316.44;;;12.24;100.00
17593;BME280;8915;51.760;14.300;2022-11-11T12:08:59;102309.50;;;12.23;100.00
17593;BME280;8915;51.760;14.300;2022-11-11T12:11:54;102303.41;;;12.21;100.00
17593;BME280;8915;51.760;14.300;2022-11-11T12:14:50;102287.72;;;12.19;100.00
17593;BME280;8915;51.760;14.300;2022-11-11T12:17:50;102285.97;;;12.18;100.00
17593;BME280;8915;51.760;14.300;2022-11-11T12:20:41;102276.41;;;12.14;100.00
17593;BME280;8915;51.760;14.300;2022-11-11T12:23:41;102275.53;;;12.15;100.00
17593;BME280;8915;51.760;14.300;2022-11-11T12:26:36;102279.03;;;12.14;100.00
17593;BME280;8915;51.760;14.300;2022-11-11T12:29:41;102281.66;;;12.12;100.00
17593;BME280;8915;51.760;14.300;2022-11-11T12:32:50;102283.41;;;12.12;100.00
17593;BME280;8915;51.760;14.300;2022-11-11T12:35:47;102298.22;;;12.11;100.00
17593;BME280;8915;51.760;14.300;2022-11-11T12:38:48;102292.13;;;12.08;100.00
17593;BME280;8915;51.760;14.300;2022-11-11T12:41:46;102286.97;;;12.00;100.00
17593;BME280;8915;51.760;14.300;2022-11-11T12:44:37;102287.88;;;11.95;100.00
17593;BME280;8915;51.760;14.300;2022-11-11T12:47:31;102294.84;;;11.91;100.00
17593;BME280;8915;51.760;14.300;2022-11-11T12:50:24;102280.00;;;11.87;100.00
17593;BME280;8915;51.760;14.300;2022-11-11T12:53:20;102283.53;;;11.77;100.00
17593;BME280;8915;51.760;14.300;2022-11-11T12:56:19;102286.16;;;11.78;100.00
17593;BME280;8915;51.760;14.300;2022-11-11T12:59:15;102290.53;;;11.76;100.00
17593;BME280;8915;51.760;14.300;2022-11-11T13:02:14;102283.53;;;11.78;100.00
17593;BME280;8915;51.760;14.300;2022-11-11T13:05:09;102270.53;;;11.72;100.00
17593;BME280;8915;51.760;14.300;2022-11-11T13:08:42;102278.34;;;11.72;100.00
17593;BME280;8915;51.760;14.300;2022-11-11T13:11:35;102274.00;;;11.69;100.00
17593;BME280;8915;51.760;14.300;2022-11-11T13:14:37;102276.59;;;11.69;100.00
17593;BME280;8915;51.760;14.300;2022-11-11T13:17:24;102274.88;;;11.68;100.00
17593;BME280;8915;51.760;14.300;2022-11-11T13:20:17;102280.13;;;11.64;100.00
17593;BME280;8915;51.760;14.300;2022-11-11T13:23:07;102283.63;;;11.61;100.00
17593;BME280;8915;51.760;14.300;2022-11-11T13:25:57;102301.06;;;11.58;100.00
17593;BME280;8915;51.760;14.300;2022-11-11T13:28:47;102300.16;;;11.57;100.00
17593;BME280;8915;51.760;14.300;2022-11-11T13:31:35;102303.69;;;11.54;100.00
17593;BME280;8915;51.760;14.300;2022-11-11T13:34:21;102309.75;;;11.53;100.00
17593;BME280;8915;51.760;14.300;2022-11-11T13:37:15;102311.53;;;11.50;100.00
17593;BME280;8915;51.760;14.300;2022-11-11T13:40:05;102308.09;;;11.42;100.00
17593;BME280;8915;51.760;14.300;2022-11-11T13:42:54;102309.84;;;11.38;100.00
17593;BME280;8915;51.760;14.300;2022-11-11T13:45:40;102308.09;;;11.32;100.00
17593;BME280;8915;51.760;14.300;2022-11-11T13:48:28;102305.50;;;11.26;100.00
17593;BME280;8915;51.760;14.300;2022-11-11T13:51:23;102313.34;;;11.22;100.00
17593;BME280;8915;51.760;14.300;2022-11-11T13:54:21;102315.09;;;11.18;100.00
17593;BME280;8915;51.760;14.300;2022-11-11T13:57:18;102316.81;;;11.13;100.00
17593;BME280;8915;51.760;14.300;2022-11-11T14:00:23;102309.88;;;11.09;100.00
17593;BME280;8915;51.760;14.300;2022-11-11T14:03:34;102309.91;;;10.99;100.00
17593;BME280;8915;51.760;14.300;2022-11-11T14:06:36;102302.94;;;10.91;100.00
17593;BME280;8915;51.760;14.300;2022-11-11T14:09:53;102303.78;;;10.85;100.00
17593;BME280;8915;51.760;14.300;2022-11-11T14:12:40;102299.47;;;10.79;100.00
17593;BME280;8915;51.760;14.300;2022-11-11T14:15:36;102307.31;;;10.75;100.00
17593;BME280;8915;51.760;14.300;2022-11-11T14:18:35;102303.81;;;10.68;100.00
17593;BME280;8915;51.760;14.300;2022-11-11T14:21:47;102302.94;;;10.60;100.00
17593;BME280;8915;51.760;14.300;2022-11-11T14:24:35;102305.56;;;10.54;100.00
17593;BME280;8915;51.760;14.300;2022-11-11T14:27:25;102297.72;;;10.48;100.00
17593;BME280;8915;51.760;14.300;2022-11-11T14:30:25;102290.75;;;10.40;100.00
17593;BME280;8915;51.760;14.300;2022-11-11T14:33:20;102295.09;;;10.34;100.00
17593;BME280;8915;51.760;14.300;2022-11-11T14:36:15;102300.28;;;10.28;100.00
17593;BME280;8915;51.760;14.300;2022-11-11T14:39:09;102297.63;;;10.20;100.00
17593;BME280;8915;51.760;14.300;2022-11-11T14:41:58;102302.00;;;10.13;100.00
17593;BME280;8915;51.760;14.300;2022-11-11T14:44:43;102289.81;;;10.04;100.00
17593;BME280;8915;51.760;14.300;2022-11-11T14:47:33;102292.34;;;9.95;100.00